sensor_id;sensor_type;location;lat;lon;timestamp;P1;durP1;ratioP1;P2;durP2;ratioP2
2750;SDS011;1383;48.362;10.908;2023-12-04T00:02:00;21.05;;;12.98;;
2750;SDS011;1383;48.362;10.908;2023-12-04T00:04:26;19.48;;;13.73;;
2750;SDS011;1383;48.362;10.908;2023-12-04T00:06:54;26.08;;;15.38;;
2750;SDS011;1383;48.362;10.908;2023-12-04T00:09:20;25.00;;;16.15;;
2750;SDS011;1383;48.362;10.908;2023-12-04T00:11:50;21.70;;;13.13;;
2750;SDS011;1383;48.362;10.908;2023-12-04T00:14:17;21.52;;;13.27;;
2750;SDS011;1383;48.362;10.908;2023-12-04T00:16:44;21.27;;;14.40;;
2750;SDS011;1383;48.362;10.908;2023-12-04T00:19:11;26.15;;;14.20;;
2750;SDS011;1383;48.362;10.908;2023-12-04T00:21:38;24.67;;;15.73;;
2750;SDS011;1383;48.362;10.908;2023-12-04T00:24:05;24.88;;;13.73;;
2750;SDS011;1383;48.362;10.908;2023-12-04T00:26:32;25.23;;;15.45;;
2750;SDS011;1383;48.362;10.908;2023-12-04T00:28:58;25.08;;;17.83;;
2750;SDS011;1383;48.362;10.908;2023-12-04T00:31:25;23.10;;;14.45;;
2750;SDS011;1383;48.362;10.908;2023-12-04T00:33:52;22.92;;;13.73;;
2750;SDS011;1383;48.362;10.908;2023-12-04T00:36:19;26.90;;;15.73;;
2750;SDS011;1383;48.362;10.908;2023-12-04T00:38:46;17.58;;;13.43;;
2750;SDS011;1383;48.362;10.908;2023-12-04T00:41:13;23.35;;;14.05;;
2750;SDS011;1383;48.362;10.908;2023-12-04T00:43:40;21.98;;;14.70;;
2750;SDS011;1383;48.362;10.908;2023-12-04T00:46:07;15.60;;;11.15;;
2750;SDS011;1383;48.362;10.908;2023-12-04T00:48:34;19.25;;;12.07;;
2750;SDS011;1383;48.362;10.908;2023-12-04T00:51:01;20.77;;;13.90;;
2750;SDS011;1383;48.362;10.908;2023-12-04T00:53:28;19.92;;;14.25;;
2750;SDS011;1383;48.362;10.908;2023-12-04T00:55:55;28.17;;;13.65;;
2750;SDS011;1383;48.362;10.908;2023-12-04T00:58:22;24.40;;;14.68;;
2750;SDS011;1383;48.362;10.908;2023-12-04T01:00:49;17.83;;;13.25;;
2750;SDS011;1383;48.362;10.908;2023-12-04T01:03:18;24.75;;;16.25;;
2750;SDS011;1383;48.362;10.908;2023-12-04T01:05:45;20.60;;;11.18;;
2750;SDS011;1383;48.362;10.908;2023-12-04T01:08:11;24.17;;;14.45;;
2750;SDS011;1383;48.362;10.908;2023-12-04T01:10:39;24.98;;;16.40;;
2750;SDS011;1383;48.362;10.908;2023-12-04T01:13:06;22.95;;;14.23;;
2750;SDS011;1383;48.362;10.908;2023-12-04T01:15:33;22.80;;;15.30;;
2750;SDS011;1383;48.362;10.908;2023-12-04T01:18:00;23.98;;;13.95;;
2750;SDS011;1383;48.362;10.908;2023-12-04T01:20:27;23.60;;;14.68;;
2750;SDS011;1383;48.362;10.908;2023-12-04T01:22:54;21.23;;;15.27;;
2750;SDS011;1383;48.362;10.908;2023-12-04T01:25:20;25.88;;;15.15;;
2750;SDS011;1383;48.362;10.908;2023-12-04T01:27:47;22.63;;;14.25;;
2750;SDS011;1383;48.362;10.908;2023-12-04T01:30:14;13.13;;;11.57;;
2750;SDS011;1383;48.362;10.908;2023-12-04T01:32:41;16.92;;;12.00;;
2750;SDS011;1383;48.362;10.908;2023-12-04T01:35:08;19.52;;;13.15;;
2750;SDS011;1383;48.362;10.908;2023-12-04T01:37:36;20.25;;;13.60;;
2750;SDS011;1383;48.362;10.908;2023-12-04T01:40:04;20.23;;;12.65;;
2750;SDS011;1383;48.362;10.908;2023-12-04T01:42:33;19.60;;;12.95;;
2750;SDS011;1383;48.362;10.908;2023-12-04T01:45:00;20.08;;;13.02;;
2750;SDS011;1383;48.362;10.908;2023-12-04T01:47:27;20.83;;;13.02;;
2750;SDS011;1383;48.362;10.908;2023-12-04T01:49:55;20.77;;;13.75;;
2750;SDS011;1383;48.362;10.908;2023-12-04T01:52:22;24.88;;;15.75;;
2750;SDS011;1383;48.362;10.908;2023-12-04T01:54:50;23.65;;;14.05;;
2750;SDS011;1383;48.362;10.908;2023-12-04T01:57:17;22.55;;;14.07;;
2750;SDS011;1383;48.362;10.908;2023-12-04T01:59:45;20.95;;;13.18;;
2750;SDS011;1383;48.362;10.908;2023-12-04T02:02:12;20.85;;;13.13;;
2750;SDS011;1383;48.362;10.908;2023-12-04T02:04:39;21.38;;;15.48;;
2750;SDS011;1383;48.362;10.908;2023-12-04T02:07:06;22.05;;;12.77;;
2750;SDS011;1383;48.362;10.908;2023-12-04T02:09:35;16.38;;;12.52;;
2750;SDS011;1383;48.362;10.908;2023-12-04T02:12:03;12.35;;;10.48;;
2750;SDS011;1383;48.362;10.908;2023-12-04T02:14:31;26.98;;;14.38;;
2750;SDS011;1383;48.362;10.908;2023-12-04T02:16:58;18.55;;;12.13;;
2750;SDS011;1383;48.362;10.908;2023-12-04T02:19:26;17.00;;;13.13;;
2750;SDS011;1383;48.362;10.908;2023-12-04T02:21:53;16.42;;;13.00;;
2750;SDS011;1383;48.362;10.908;2023-12-04T02:24:20;16.45;;;11.98;;
2750;SDS011;1383;48.362;10.908;2023-12-04T02:26:47;17.25;;;11.00;;
2750;SDS011;1383;48.362;10.908;2023-12-04T02:29:32;17.38;;;10.38;;
2750;SDS011;1383;48.362;10.908;2023-12-04T02:32:05;17.80;;;11.75;;
2750;SDS011;1383;48.362;10.908;2023-12-04T02:34:34;18.55;;;12.02;;
2750;SDS011;1383;48.362;10.908;2023-12-04T02:37:02;19.90;;;12.40;;
2750;SDS011;1383;48.362;10.908;2023-12-04T02:39:30;17.33;;;12.27;;
2750;SDS011;1383;48.362;10.908;2023-12-04T02:41:57;21.00;;;13.68;;
2750;SDS011;1383;48.362;10.908;2023-12-04T02:44:24;26.50;;;13.95;;
2750;SDS011;1383;48.362;10.908;2023-12-04T02:46:51;14.57;;;10.30;;
2750;SDS011;1383;48.362;10.908;2023-12-04T02:49:18;14.70;;;10.75;;
2750;SDS011;1383;48.362;10.908;2023-12-04T02:51:45;16.88;;;12.57;;
2750;SDS011;1383;48.362;10.908;2023-12-04T02:54:12;15.82;;;10.68;;
2750;SDS011;1383;48.362;10.908;2023-12-04T02:56:38;17.02;;;11.93;;
2750;SDS011;1383;48.362;10.908;2023-12-04T02:59:05;15.77;;;12.82;;
2750;SDS011;1383;48.362;10.908;2023-12-04T03:01:32;13.80;;;10.98;;
2750;SDS011;1383;48.362;10.908;2023-12-04T03:03:59;18.90;;;13.07;;
2750;SDS011;1383;48.362;10.908;2023-12-04T03:06:26;13.48;;;10.48;;
2750;SDS011;1383;48.362;10.908;2023-12-04T03:08:53;13.43;;;11.25;;
2750;SDS011;1383;48.362;10.908;2023-12-04T03:11:20;17.30;;;11.13;;
2750;SDS011;1383;48.362;10.908;2023-12-04T03:13:47;15.32;;;11.88;;
2750;SDS011;1383;48.362;10.908;2023-12-04T03:16:17;14.68;;;10.68;;
2750;SDS011;1383;48.362;10.908;2023-12-04T03:18:45;18.92;;;10.95;;
2750;SDS011;1383;48.362;10.908;2023-12-04T03:21:12;20.63;;;12.50;;
2750;SDS011;1383;48.362;10.908;2023-12-04T03:23:39;19.15;;;12.20;;
2750;SDS011;1383;48.362;10.908;2023-12-04T03:26:06;14.30;;;10.98;;
2750;SDS011;1383;48.362;10.908;2023-12-04T03:28:33;15.55;;;9.30;;
2750;SDS011;1383;48.362;10.908;2023-12-04T03:31:00;19.95;;;11.57;;
2750;SDS011;1383;48.362;10.908;2023-12-04T03:33:27;15.95;;;10.65;;
2750;SDS011;1383;48.362;10.908;2023-12-04T03:35:54;17.58;;;10.98;;
2750;SDS011;1383;48.362;10.908;2023-12-04T03:38:21;23.02;;;11.95;;
2750;SDS011;1383;48.362;10.908;2023-12-04T03:40:48;21.15;;;12.50;;
2750;SDS011;1383;48.362;10.908;2023-12-04T03:43:15;19.42;;;12.80;;
2750;SDS011;1383;48.362;10.908;2023-12-04T03:45:42;20.00;;;11.73;;
2750;SDS011;1383;48.362;10.908;2023-12-04T03:48:09;15.18;;;10.40;;
2750;SDS011;1383;48.362;10.908;2023-12-04T03:50:36;15.88;;;12.35;;
2750;SDS011;1383;48.362;10.908;2023-12-04T03:53:03;16.95;;;11.80;;
2750;SDS011;1383;48.362;10.908;2023-12-04T03:55:30;16.65;;;10.93;;
2750;SDS011;1383;48.362;10.908;2023-12-04T03:57:57;17.05;;;12.05;;
2750;SDS011;1383;48.362;10.908;2023-12-04T04:00:25;20.52;;;11.18;;
2750;SDS011;1383;48.362;10.908;2023-12-04T04:02:52;20.58;;;11.38;;
2750;SDS011;1383;48.362;10.908;2023-12-04T04:05:19;16.95;;;10.95;;
2750;SDS011;1383;48.362;10.908;2023-12-04T04:07:46;21.80;;;13.02;;
2750;SDS011;1383;48.362;10.908;2023-12-04T04:10:13;16.10;;;12.15;;
2750;SDS011;1383;48.362;10.908;2023-12-04T04:12:40;18.42;;;13.18;;
2750;SDS011;1383;48.362;10.908;2023-12-04T04:15:07;20.10;;;12.50;;
2750;SDS011;1383;48.362;10.908;2023-12-04T04:17:34;15.00;;;11.50;;
2750;SDS011;1383;48.362;10.908;2023-12-04T04:20:01;17.98;;;10.60;;
2750;SDS011;1383;48.362;10.908;2023-12-04T04:22:29;21.08;;;11.32;;
2750;SDS011;1383;48.362;10.908;2023-12-04T04:24:56;14.50;;;10.20;;
2750;SDS011;1383;48.362;10.908;2023-12-04T04:27:23;15.25;;;10.80;;
2750;SDS011;1383;48.362;10.908;2023-12-04T04:29:50;14.50;;;8.85;;
2750;SDS011;1383;48.362;10.908;2023-12-04T04:32:17;12.65;;;9.70;;
2750;SDS011;1383;48.362;10.908;2023-12-04T04:34:44;18.15;;;11.57;;
2750;SDS011;1383;48.362;10.908;2023-12-04T04:37:11;19.90;;;13.10;;
2750;SDS011;1383;48.362;10.908;2023-12-04T04:39:39;14.07;;;9.82;;
2750;SDS011;1383;48.362;10.908;2023-12-04T04:42:06;14.55;;;10.52;;
2750;SDS011;1383;48.362;10.908;2023-12-04T04:44:33;17.42;;;11.48;;
2750;SDS011;1383;48.362;10.908;2023-12-04T04:47:01;16.50;;;11.52;;
2750;SDS011;1383;48.362;10.908;2023-12-04T04:49:28;14.57;;;9.40;;
2750;SDS011;1383;48.362;10.908;2023-12-04T04:51:55;16.20;;;10.35;;
2750;SDS011;1383;48.362;10.908;2023-12-04T04:54:22;15.55;;;10.52;;
2750;SDS011;1383;48.362;10.908;2023-12-04T04:56:49;13.90;;;10.50;;
2750;SDS011;1383;48.362;10.908;2023-12-04T04:59:17;16.02;;;10.05;;
2750;SDS011;1383;48.362;10.908;2023-12-04T05:01:44;11.25;;;9.50;;
2750;SDS011;1383;48.362;10.908;2023-12-04T05:04:11;14.35;;;10.07;;
2750;SDS011;1383;48.362;10.908;2023-12-04T05:06:38;16.05;;;10.38;;
2750;SDS011;1383;48.362;10.908;2023-12-04T05:09:05;19.17;;;12.60;;
2750;SDS011;1383;48.362;10.908;2023-12-04T05:11:31;14.35;;;9.45;;
2750;SDS011;1383;48.362;10.908;2023-12-04T05:13:58;12.73;;;10.50;;
2750;SDS011;1383;48.362;10.908;2023-12-04T05:16:25;20.65;;;11.70;;
2750;SDS011;1383;48.362;10.908;2023-12-04T05:18:52;15.18;;;9.23;;
2750;SDS011;1383;48.362;10.908;2023-12-04T05:21:19;14.52;;;6.60;;
2750;SDS011;1383;48.362;10.908;2023-12-04T05:23:46;14.48;;;10.05;;
2750;SDS011;1383;48.362;10.908;2023-12-04T05:26:12;19.25;;;9.68;;
2750;SDS011;1383;48.362;10.908;2023-12-04T05:28:39;17.55;;;11.43;;
2750;SDS011;1383;48.362;10.908;2023-12-04T05:31:06;17.15;;;10.30;;
2750;SDS011;1383;48.362;10.908;2023-12-04T05:33:33;12.45;;;7.82;;
2750;SDS011;1383;48.362;10.908;2023-12-04T05:36:00;18.13;;;11.63;;
2750;SDS011;1383;48.362;10.908;2023-12-04T05:38:27;12.80;;;10.75;;
2750;SDS011;1383;48.362;10.908;2023-12-04T05:40:54;16.23;;;9.63;;
2750;SDS011;1383;48.362;10.908;2023-12-04T05:43:21;18.08;;;9.05;;
2750;SDS011;1383;48.362;10.908;2023-12-04T05:45:48;19.67;;;11.27;;
2750;SDS011;1383;48.362;10.908;2023-12-04T05:48:18;20.27;;;11.27;;
2750;SDS011;1383;48.362;10.908;2023-12-04T05:50:45;23.73;;;11.73;;
2750;SDS011;1383;48.362;10.908;2023-12-04T05:53:11;15.60;;;9.40;;
2750;SDS011;1383;48.362;10.908;2023-12-04T05:55:38;12.85;;;8.55;;
2750;SDS011;1383;48.362;10.908;2023-12-04T05:58:05;8.85;;;6.20;;
2750;SDS011;1383;48.362;10.908;2023-12-04T06:00:32;17.77;;;9.43;;
2750;SDS011;1383;48.362;10.908;2023-12-04T06:02:59;14.93;;;8.63;;
2750;SDS011;1383;48.362;10.908;2023-12-04T06:05:26;11.35;;;8.30;;
2750;SDS011;1383;48.362;10.908;2023-12-04T06:07:53;18.02;;;10.13;;
2750;SDS011;1383;48.362;10.908;2023-12-04T06:10:20;15.57;;;9.20;;
2750;SDS011;1383;48.362;10.908;2023-12-04T06:12:47;16.35;;;11.30;;
2750;SDS011;1383;48.362;10.908;2023-12-04T06:15:14;13.50;;;9.30;;
2750;SDS011;1383;48.362;10.908;2023-12-04T06:17:41;14.82;;;9.35;;
2750;SDS011;1383;48.362;10.908;2023-12-04T06:20:08;17.52;;;10.00;;
2750;SDS011;1383;48.362;10.908;2023-12-04T06:22:37;19.48;;;9.98;;
2750;SDS011;1383;48.362;10.908;2023-12-04T06:25:05;16.63;;;9.68;;
2750;SDS011;1383;48.362;10.908;2023-12-04T06:27:32;15.73;;;10.15;;
2750;SDS011;1383;48.362;10.908;2023-12-04T06:30:00;13.02;;;8.00;;
2750;SDS011;1383;48.362;10.908;2023-12-04T06:32:28;17.75;;;11.98;;
2750;SDS011;1383;48.362;10.908;2023-12-04T06:34:55;14.60;;;8.93;;
2750;SDS011;1383;48.362;10.908;2023-12-04T06:37:22;18.75;;;8.70;;
2750;SDS011;1383;48.362;10.908;2023-12-04T06:39:49;18.65;;;11.07;;
2750;SDS011;1383;48.362;10.908;2023-12-04T06:42:19;13.98;;;9.65;;
2750;SDS011;1383;48.362;10.908;2023-12-04T06:44:46;14.02;;;8.88;;
2750;SDS011;1383;48.362;10.908;2023-12-04T06:47:13;19.50;;;12.45;;
2750;SDS011;1383;48.362;10.908;2023-12-04T06:49:44;14.73;;;10.50;;
2750;SDS011;1383;48.362;10.908;2023-12-04T06:52:11;14.55;;;9.38;;
2750;SDS011;1383;48.362;10.908;2023-12-04T06:54:38;17.48;;;10.77;;
2750;SDS011;1383;48.362;10.908;2023-12-04T06:57:05;25.10;;;13.45;;
2750;SDS011;1383;48.362;10.908;2023-12-04T06:59:32;15.35;;;10.98;;
2750;SDS011;1383;48.362;10.908;2023-12-04T07:01:58;8.93;;;7.80;;
2750;SDS011;1383;48.362;10.908;2023-12-04T07:04:25;13.75;;;9.20;;
2750;SDS011;1383;48.362;10.908;2023-12-04T07:06:52;17.58;;;11.48;;
2750;SDS011;1383;48.362;10.908;2023-12-04T07:09:19;17.77;;;11.32;;
2750;SDS011;1383;48.362;10.908;2023-12-04T07:11:46;18.70;;;11.75;;
2750;SDS011;1383;48.362;10.908;2023-12-04T07:14:13;23.80;;;13.07;;
2750;SDS011;1383;48.362;10.908;2023-12-04T07:16:43;18.45;;;12.13;;
2750;SDS011;1383;48.362;10.908;2023-12-04T07:19:10;17.33;;;12.30;;
2750;SDS011;1383;48.362;10.908;2023-12-04T07:21:38;18.98;;;11.30;;
2750;SDS011;1383;48.362;10.908;2023-12-04T07:24:05;18.73;;;11.77;;
2750;SDS011;1383;48.362;10.908;2023-12-04T07:26:33;15.48;;;9.30;;
2750;SDS011;1383;48.362;10.908;2023-12-04T07:29:00;17.63;;;11.55;;
2750;SDS011;1383;48.362;10.908;2023-12-04T07:31:28;17.92;;;10.93;;
2750;SDS011;1383;48.362;10.908;2023-12-04T07:33:55;18.52;;;11.35;;
2750;SDS011;1383;48.362;10.908;2023-12-04T07:36:22;19.77;;;11.45;;
2750;SDS011;1383;48.362;10.908;2023-12-04T07:38:51;11.23;;;8.82;;
2750;SDS011;1383;48.362;10.908;2023-12-04T07:41:20;14.90;;;11.35;;
2750;SDS011;1383;48.362;10.908;2023-12-04T07:43:48;20.60;;;12.20;;
2750;SDS011;1383;48.362;10.908;2023-12-04T07:46:15;17.60;;;10.52;;
2750;SDS011;1383;48.362;10.908;2023-12-04T07:48:42;18.90;;;11.07;;
2750;SDS011;1383;48.362;10.908;2023-12-04T07:51:10;12.38;;;9.82;;
2750;SDS011;1383;48.362;10.908;2023-12-04T07:53:37;15.07;;;11.02;;
2750;SDS011;1383;48.362;10.908;2023-12-04T07:56:04;18.08;;;10.60;;
2750;SDS011;1383;48.362;10.908;2023-12-04T07:58:32;11.02;;;9.43;;
2750;SDS011;1383;48.362;10.908;2023-12-04T08:00:59;15.00;;;11.32;;
2750;SDS011;1383;48.362;10.908;2023-12-04T08:03:26;19.17;;;12.52;;
2750;SDS011;1383;48.362;10.908;2023-12-04T08:05:53;11.25;;;9.82;;
2750;SDS011;1383;48.362;10.908;2023-12-04T08:08:20;14.13;;;11.30;;
2750;SDS011;1383;48.362;10.908;2023-12-04T08:10:47;22.05;;;14.05;;
2750;SDS011;1383;48.362;10.908;2023-12-04T08:13:14;16.33;;;11.23;;
2750;SDS011;1383;48.362;10.908;2023-12-04T08:15:43;19.20;;;10.02;;
2750;SDS011;1383;48.362;10.908;2023-12-04T08:18:10;20.80;;;12.43;;
2750;SDS011;1383;48.362;10.908;2023-12-04T08:20:37;17.23;;;9.93;;
2750;SDS011;1383;48.362;10.908;2023-12-04T08:23:06;18.25;;;12.82;;
2750;SDS011;1383;48.362;10.908;2023-12-04T08:25:34;17.23;;;12.60;;
2750;SDS011;1383;48.362;10.908;2023-12-04T08:28:05;22.77;;;13.50;;
2750;SDS011;1383;48.362;10.908;2023-12-04T08:30:32;17.98;;;10.60;;
2750;SDS011;1383;48.362;10.908;2023-12-04T08:32:59;23.65;;;14.25;;
2750;SDS011;1383;48.362;10.908;2023-12-04T08:35:26;21.02;;;12.90;;
2750;SDS011;1383;48.362;10.908;2023-12-04T08:37:53;21.88;;;12.40;;
2750;SDS011;1383;48.362;10.908;2023-12-04T08:40:20;24.33;;;13.77;;
2750;SDS011;1383;48.362;10.908;2023-12-04T08:42:47;18.90;;;12.38;;
2750;SDS011;1383;48.362;10.908;2023-12-04T08:45:14;21.42;;;14.30;;
2750;SDS011;1383;48.362;10.908;2023-12-04T08:47:43;20.13;;;13.65;;
2750;SDS011;1383;48.362;10.908;2023-12-04T08:50:10;17.90;;;12.23;;
2750;SDS011;1383;48.362;10.908;2023-12-04T08:52:37;20.45;;;11.90;;
2750;SDS011;1383;48.362;10.908;2023-12-04T08:55:07;31.27;;;16.95;;
2750;SDS011;1383;48.362;10.908;2023-12-04T08:57:35;15.50;;;12.55;;
2750;SDS011;1383;48.362;10.908;2023-12-04T09:00:02;16.58;;;11.35;;
2750;SDS011;1383;48.362;10.908;2023-12-04T09:02:30;18.05;;;12.48;;
2750;SDS011;1383;48.362;10.908;2023-12-04T09:04:58;22.15;;;11.90;;
2750;SDS011;1383;48.362;10.908;2023-12-04T09:07:25;12.27;;;9.85;;
2750;SDS011;1383;48.362;10.908;2023-12-04T09:10:12;22.10;;;11.02;;
2750;SDS011;1383;48.362;10.908;2023-12-04T09:12:56;13.05;;;9.50;;
2750;SDS011;1383;48.362;10.908;2023-12-04T09:15:23;9.80;;;8.10;;
2750;SDS011;1383;48.362;10.908;2023-12-04T09:17:49;19.02;;;13.40;;
2750;SDS011;1383;48.362;10.908;2023-12-04T09:20:16;22.27;;;12.27;;
2750;SDS011;1383;48.362;10.908;2023-12-04T09:22:43;11.68;;;8.20;;
2750;SDS011;1383;48.362;10.908;2023-12-04T09:25:18;25.15;;;13.95;;
2750;SDS011;1383;48.362;10.908;2023-12-04T09:27:45;19.75;;;11.18;;
2750;SDS011;1383;48.362;10.908;2023-12-04T09:30:12;17.23;;;10.70;;
2750;SDS011;1383;48.362;10.908;2023-12-04T09:32:40;16.40;;;11.27;;
2750;SDS011;1383;48.362;10.908;2023-12-04T09:35:07;19.60;;;14.80;;
2750;SDS011;1383;48.362;10.908;2023-12-04T09:37:35;17.95;;;11.85;;
2750;SDS011;1383;48.362;10.908;2023-12-04T09:40:02;28.98;;;17.25;;
2750;SDS011;1383;48.362;10.908;2023-12-04T09:42:30;27.35;;;15.65;;
2750;SDS011;1383;48.362;10.908;2023-12-04T09:44:58;18.02;;;13.82;;
2750;SDS011;1383;48.362;10.908;2023-12-04T09:47:25;24.30;;;15.07;;
2750;SDS011;1383;48.362;10.908;2023-12-04T09:49:53;18.25;;;13.93;;
2750;SDS011;1383;48.362;10.908;2023-12-04T09:52:21;19.55;;;13.80;;
2750;SDS011;1383;48.362;10.908;2023-12-04T09:54:48;19.40;;;12.90;;
2750;SDS011;1383;48.362;10.908;2023-12-04T09:57:17;25.23;;;14.85;;
2750;SDS011;1383;48.362;10.908;2023-12-04T09:59:44;17.23;;;12.52;;
2750;SDS011;1383;48.362;10.908;2023-12-04T10:02:13;12.85;;;10.30;;
2750;SDS011;1383;48.362;10.908;2023-12-04T10:04:40;20.17;;;13.30;;
2750;SDS011;1383;48.362;10.908;2023-12-04T10:07:08;24.17;;;14.35;;
2750;SDS011;1383;48.362;10.908;2023-12-04T10:09:35;18.42;;;14.57;;
2750;SDS011;1383;48.362;10.908;2023-12-04T10:12:03;21.70;;;12.80;;
2750;SDS011;1383;48.362;10.908;2023-12-04T10:14:32;24.95;;;14.00;;
2750;SDS011;1383;48.362;10.908;2023-12-04T10:16:59;9.15;;;7.43;;
2750;SDS011;1383;48.362;10.908;2023-12-04T10:19:26;17.15;;;11.15;;
2750;SDS011;1383;48.362;10.908;2023-12-04T10:21:58;23.73;;;14.38;;
2750;SDS011;1383;48.362;10.908;2023-12-04T10:24:32;18.63;;;13.30;;
2750;SDS011;1383;48.362;10.908;2023-12-04T10:27:03;21.95;;;14.25;;
2750;SDS011;1383;48.362;10.908;2023-12-04T10:29:42;15.13;;;10.82;;
2750;SDS011;1383;48.362;10.908;2023-12-04T10:32:17;19.52;;;12.45;;
2750;SDS011;1383;48.362;10.908;2023-12-04T10:34:48;19.95;;;13.88;;
2750;SDS011;1383;48.362;10.908;2023-12-04T10:37:16;21.00;;;12.65;;
2750;SDS011;1383;48.362;10.908;2023-12-04T10:39:46;19.50;;;14.40;;
2750;SDS011;1383;48.362;10.908;2023-12-04T10:42:26;13.75;;;10.90;;
2750;SDS011;1383;48.362;10.908;2023-12-04T10:45:10;16.45;;;12.98;;
2750;SDS011;1383;48.362;10.908;2023-12-04T10:51:25;11.82;;;8.85;;
2750;SDS011;1383;48.362;10.908;2023-12-04T11:05:18;22.85;;;13.70;;
2750;SDS011;1383;48.362;10.908;2023-12-04T11:07:50;21.10;;;14.70;;
2750;SDS011;1383;48.362;10.908;2023-12-04T11:13:32;19.77;;;11.63;;
2750;SDS011;1383;48.362;10.908;2023-12-04T11:19:23;18.33;;;11.63;;
2750;SDS011;1383;48.362;10.908;2023-12-04T11:22:03;18.20;;;11.98;;
2750;SDS011;1383;48.362;10.908;2023-12-04T11:24:31;21.58;;;14.23;;
2750;SDS011;1383;48.362;10.908;2023-12-04T11:30:15;15.48;;;12.40;;
2750;SDS011;1383;48.362;10.908;2023-12-04T11:33:02;15.57;;;12.43;;
2750;SDS011;1383;48.362;10.908;2023-12-04T11:35:31;14.38;;;12.73;;
2750;SDS011;1383;48.362;10.908;2023-12-04T11:38:00;19.92;;;14.45;;
2750;SDS011;1383;48.362;10.908;2023-12-04T11:40:27;24.90;;;15.00;;
2750;SDS011;1383;48.362;10.908;2023-12-04T11:42:54;22.90;;;16.42;;
2750;SDS011;1383;48.362;10.908;2023-12-04T11:45:21;22.50;;;16.40;;
2750;SDS011;1383;48.362;10.908;2023-12-04T11:47:51;25.30;;;16.50;;
2750;SDS011;1383;48.362;10.908;2023-12-04T11:50:26;25.75;;;15.68;;
2750;SDS011;1383;48.362;10.908;2023-12-04T11:52:53;26.50;;;13.50;;
2750;SDS011;1383;48.362;10.908;2023-12-04T11:55:21;21.17;;;14.68;;
2750;SDS011;1383;48.362;10.908;2023-12-04T11:57:49;23.17;;;16.52;;
2750;SDS011;1383;48.362;10.908;2023-12-04T12:05:47;25.50;;;15.90;;
2750;SDS011;1383;48.362;10.908;2023-12-04T12:08:16;29.85;;;16.98;;
2750;SDS011;1383;48.362;10.908;2023-12-04T12:10:46;26.80;;;15.52;;
2750;SDS011;1383;48.362;10.908;2023-12-04T12:17:51;22.40;;;15.80;;
2750;SDS011;1383;48.362;10.908;2023-12-04T12:21:18;21.10;;;16.98;;
2750;SDS011;1383;48.362;10.908;2023-12-04T12:24:27;17.80;;;12.88;;
2750;SDS011;1383;48.362;10.908;2023-12-04T14:58:01;23.60;;;19.33;;
2750;SDS011;1383;48.362;10.908;2023-12-04T15:01:39;44.28;;;25.13;;
2750;SDS011;1383;48.362;10.908;2023-12-04T15:08:58;22.58;;;18.17;;
2750;SDS011;1383;48.362;10.908;2023-12-04T15:12:26;16.20;;;11.40;;
2750;SDS011;1383;48.362;10.908;2023-12-04T15:15:30;25.10;;;18.70;;
2750;SDS011;1383;48.362;10.908;2023-12-04T15:18:38;21.15;;;15.50;;
2750;SDS011;1383;48.362;10.908;2023-12-04T15:21:08;22.27;;;17.23;;
2750;SDS011;1383;48.362;10.908;2023-12-04T15:24:04;24.88;;;16.05;;
2750;SDS011;1383;48.362;10.908;2023-12-04T15:26:42;23.85;;;16.48;;
2750;SDS011;1383;48.362;10.908;2023-12-04T15:33:44;25.63;;;16.90;;
2750;SDS011;1383;48.362;10.908;2023-12-04T15:40:46;22.55;;;17.45;;
2750;SDS011;1383;48.362;10.908;2023-12-04T15:47:41;27.35;;;18.20;;
2750;SDS011;1383;48.362;10.908;2023-12-04T15:50:11;22.05;;;17.90;;
2750;SDS011;1383;48.362;10.908;2023-12-04T15:52:56;28.42;;;20.50;;
2750;SDS011;1383;48.362;10.908;2023-12-04T15:56:04;25.92;;;18.02;;
2750;SDS011;1383;48.362;10.908;2023-12-04T15:58:44;30.38;;;19.60;;
2750;SDS011;1383;48.362;10.908;2023-12-04T16:05:03;30.33;;;18.65;;
2750;SDS011;1383;48.362;10.908;2023-12-04T16:12:45;26.88;;;17.42;;
2750;SDS011;1383;48.362;10.908;2023-12-04T16:15:21;25.80;;;18.83;;
2750;SDS011;1383;48.362;10.908;2023-12-04T16:17:50;29.45;;;20.70;;
2750;SDS011;1383;48.362;10.908;2023-12-04T16:20:17;30.33;;;19.70;;
2750;SDS011;1383;48.362;10.908;2023-12-04T16:22:44;29.90;;;20.30;;
2750;SDS011;1383;48.362;10.908;2023-12-04T16:25:11;27.80;;;21.25;;
2750;SDS011;1383;48.362;10.908;2023-12-04T16:27:44;27.70;;;20.52;;
2750;SDS011;1383;48.362;10.908;2023-12-04T16:30:14;28.63;;;19.20;;
2750;SDS011;1383;48.362;10.908;2023-12-04T16:32:41;28.13;;;18.05;;
2750;SDS011;1383;48.362;10.908;2023-12-04T16:35:08;23.48;;;17.98;;
2750;SDS011;1383;48.362;10.908;2023-12-04T16:37:35;26.55;;;18.73;;
2750;SDS011;1383;48.362;10.908;2023-12-04T16:40:03;30.25;;;19.13;;
2750;SDS011;1383;48.362;10.908;2023-12-04T16:42:31;27.50;;;18.42;;
2750;SDS011;1383;48.362;10.908;2023-12-04T16:44:58;28.83;;;18.08;;
2750;SDS011;1383;48.362;10.908;2023-12-04T16:47:25;27.75;;;20.48;;
2750;SDS011;1383;48.362;10.908;2023-12-04T16:49:52;28.83;;;18.25;;
2750;SDS011;1383;48.362;10.908;2023-12-04T16:52:19;25.40;;;18.45;;
2750;SDS011;1383;48.362;10.908;2023-12-04T16:54:46;30.10;;;20.48;;
2750;SDS011;1383;48.362;10.908;2023-12-04T16:57:20;25.10;;;18.00;;
2750;SDS011;1383;48.362;10.908;2023-12-04T16:59:56;21.55;;;15.20;;
2750;SDS011;1383;48.362;10.908;2023-12-04T17:06:22;24.90;;;17.67;;
2750;SDS011;1383;48.362;10.908;2023-12-04T17:08:49;25.83;;;18.23;;
2750;SDS011;1383;48.362;10.908;2023-12-04T17:12:06;22.50;;;18.73;;
2750;SDS011;1383;48.362;10.908;2023-12-04T17:15:31;27.20;;;18.77;;
2750;SDS011;1383;48.362;10.908;2023-12-04T17:18:02;23.17;;;18.15;;
2750;SDS011;1383;48.362;10.908;2023-12-04T17:20:36;28.58;;;20.88;;
2750;SDS011;1383;48.362;10.908;2023-12-04T17:23:38;29.58;;;22.85;;
2750;SDS011;1383;48.362;10.908;2023-12-04T17:26:09;25.58;;;18.95;;
2750;SDS011;1383;48.362;10.908;2023-12-04T17:28:36;28.08;;;21.63;;
2750;SDS011;1383;48.362;10.908;2023-12-04T17:31:03;36.85;;;23.02;;
2750;SDS011;1383;48.362;10.908;2023-12-04T17:33:44;26.67;;;19.20;;
2750;SDS011;1383;48.362;10.908;2023-12-04T17:36:16;24.33;;;18.85;;
2750;SDS011;1383;48.362;10.908;2023-12-04T17:38:43;30.83;;;22.42;;
2750;SDS011;1383;48.362;10.908;2023-12-04T17:41:10;35.55;;;24.85;;
2750;SDS011;1383;48.362;10.908;2023-12-04T17:43:39;29.35;;;19.33;;
2750;SDS011;1383;48.362;10.908;2023-12-04T17:46:06;29.30;;;20.52;;
2750;SDS011;1383;48.362;10.908;2023-12-04T17:48:43;35.28;;;22.25;;
2750;SDS011;1383;48.362;10.908;2023-12-04T17:51:48;28.98;;;21.48;;
2750;SDS011;1383;48.362;10.908;2023-12-04T17:54:31;29.23;;;19.58;;
2750;SDS011;1383;48.362;10.908;2023-12-04T17:57:03;23.20;;;19.15;;
2750;SDS011;1383;48.362;10.908;2023-12-04T17:59:46;28.05;;;20.77;;
2750;SDS011;1383;48.362;10.908;2023-12-04T18:02:31;22.40;;;19.48;;
2750;SDS011;1383;48.362;10.908;2023-12-04T18:05:03;18.55;;;16.10;;
2750;SDS011;1383;48.362;10.908;2023-12-04T18:07:57;33.00;;;20.45;;
2750;SDS011;1383;48.362;10.908;2023-12-04T18:10:23;29.27;;;21.17;;
2750;SDS011;1383;48.362;10.908;2023-12-04T18:12:50;27.60;;;20.08;;
2750;SDS011;1383;48.362;10.908;2023-12-04T18:15:17;30.15;;;21.08;;
2750;SDS011;1383;48.362;10.908;2023-12-04T18:17:45;31.55;;;22.23;;
2750;SDS011;1383;48.362;10.908;2023-12-04T18:20:13;29.85;;;21.58;;
2750;SDS011;1383;48.362;10.908;2023-12-04T18:22:43;29.08;;;21.58;;
2750;SDS011;1383;48.362;10.908;2023-12-04T18:25:11;34.78;;;23.65;;
2750;SDS011;1383;48.362;10.908;2023-12-04T18:27:43;30.98;;;21.52;;
2750;SDS011;1383;48.362;10.908;2023-12-04T18:30:42;32.42;;;19.10;;